Time;durP1;ratioP1;P1;durP2;ratioP2;P2;SDS_P1;SDS_P2;PMS_P1;PMS_P2;Temp;Humidity;BMP_temperature;BMP_pressure;BME280_temperature;BME280_humidity;BME280_pressure;Samples;Min_cycle;Max_cycle;Signal;HPM_P1;HPM_P2
2022/06/06 00:01:18;;;;;;;57.88;28.70;;;;;;;15.91;79.24;101307.09;4970974;28;20066;-89
2022/06/06 00:03:44;;;;;;;54.70;27.63;;;;;;;15.87;79.80;101300.19;4953341;28;20117;-88
2022/06/06 00:06:11;;;;;;;59.00;28.13;;;;;;;15.86;80.05;101303.81;4968150;28;20118;-89
2022/06/06 00:08:39;;;;;;;59.63;29.80;;;;;;;15.85;80.24;101300.25;4949760;28;20085;-89
2022/06/06 00:11:05;;;;;;;60.33;28.48;;;;;;;15.83;80.75;101304.84;4968605;28;20041;-88
2022/06/06 00:13:31;;;;;;;55.08;28.63;;;;;;;15.79;81.10;101298.78;4970887;28;20113;-88
2022/06/06 00:15:57;;;;;;;59.13;27.20;;;;;;;15.77;81.26;101303.38;4956529;28;20501;-88
2022/06/06 00:18:23;;;;;;;55.20;26.13;;;;;;;15.75;81.47;101297.25;4969042;28;20034;-88
2022/06/06 00:20:48;;;;;;;51.80;25.30;;;;;;;15.75;81.64;101293.72;4963519;28;20026;-87
2022/06/06 00:23:13;;;;;;;57.55;26.98;;;;;;;15.74;81.52;101292.84;4966992;28;20055;-89
2022/06/06 00:25:38;;;;;;;54.60;26.65;;;;;;;15.74;81.85;101294.66;4965964;28;20031;-89
2022/06/06 00:28:04;;;;;;;51.42;25.80;;;;;;;15.77;81.87;101300.69;4952000;28;20406;-88
2022/06/06 00:30:29;;;;;;;51.13;24.58;;;;;;;15.77;81.91;101292.69;4970028;28;20090;-89
2022/06/06 00:35:38;;;;;;;50.55;24.52;;;;;;;15.73;81.82;101287.63;4964948;28;20128;-87
2022/06/06 00:38:04;;;;;;;56.92;25.88;;;;;;;15.74;82.06;101290.19;4966003;28;20031;-87
2022/06/06 00:40:30;;;;;;;51.55;26.58;;;;;;;15.73;81.75;101290.28;4966090;28;20026;-86
2022/06/06 00:42:56;;;;;;;54.08;25.10;;;;;;;15.68;82.06;101282.53;4969478;28;20082;-87
2022/06/06 00:45:35;;;;;;;55.80;25.42;;;;;;;15.72;82.45;101285.91;4964928;28;20031;-87
2022/06/06 00:48:13;;;;;;;49.75;23.75;;;;;;;15.72;82.15;101283.25;4967644;28;20549;-87
2022/06/06 00:51:05;;;;;;;56.58;25.45;;;;;;;15.69;82.19;101289.59;4969199;28;20401;-87
2022/06/06 00:53:42;;;;;;;52.15;23.52;;;;;;;15.67;82.05;101282.63;4968366;28;20026;-87
2022/06/06 00:56:29;;;;;;;56.90;24.00;;;;;;;15.74;82.12;101284.84;4964310;28;20125;-88
2022/06/06 00:58:59;;;;;;;52.78;23.50;;;;;;;15.70;82.25;101285.09;4944799;28;21380;-88
2022/06/06 01:01:26;;;;;;;55.22;24.83;;;;;;;15.69;82.39;101276.25;4969482;28;20191;-87
2022/06/06 01:03:55;;;;;;;53.45;24.63;;;;;;;15.73;82.06;101275.16;4962315;28;20494;-87
2022/06/06 01:06:22;;;;;;;50.53;23.75;;;;;;;15.71;81.87;101274.34;4947803;28;20124;-88
2022/06/06 01:08:48;;;;;;;51.05;23.83;;;;;;;15.70;81.94;101277.97;4969226;28;20382;-87
2022/06/06 01:11:13;;;;;;;55.72;26.45;;;;;;;15.63;81.71;101273.03;4966852;28;20034;-87
2022/06/06 01:13:42;;;;;;;53.42;24.80;;;;;;;15.67;82.11;101282.63;4970322;28;20049;-87
2022/06/06 01:16:27;;;;;;;54.05;24.90;;;;;;;15.75;81.61;101286.56;4965181;28;20105;-87
2022/06/06 01:19:14;;;;;;;56.35;25.38;;;;;;;15.71;82.32;101285.03;4966463;28;20502;-87
2022/06/06 01:22:04;;;;;;;53.38;23.45;;;;;;;15.68;82.10;101287.00;4967046;28;20030;-87
2022/06/06 01:24:50;;;;;;;60.72;25.58;;;;;;;15.65;82.35;101271.19;4946545;28;20516;-87
2022/06/06 01:27:41;;;;;;;59.55;27.20;;;;;;;15.59;82.59;101275.00;4968511;28;20027;-86
2022/06/06 01:30:11;;;;;;;58.72;26.20;;;;;;;15.57;81.86;101272.44;4962839;28;20042;-87
2022/06/06 01:32:41;;;;;;;62.15;28.48;;;;;;;15.59;82.41;101276.81;4947067;28;20105;-87
2022/06/06 01:35:08;;;;;;;62.17;28.17;;;;;;;15.53;82.43;101281.53;4948399;28;20474;-87
2022/06/06 01:37:39;;;;;;;60.40;28.85;;;;;;;15.58;82.76;101289.28;4948211;28;20108;-87
2022/06/06 01:40:09;;;;;;;64.55;31.45;;;;;;;15.55;82.40;101281.44;4968695;28;20393;-88
2022/06/06 01:42:51;;;;;;;64.05;30.27;;;;;;;15.53;82.71;101275.34;4964777;28;20031;-87
2022/06/06 01:45:27;;;;;;;69.50;31.20;;;;;;;15.54;82.93;101277.91;4967432;28;20046;-87
2022/06/06 01:48:01;;;;;;;64.47;30.52;;;;;;;15.59;83.59;101279.47;4965860;28;20029;-87
2022/06/06 01:50:27;;;;;;;66.93;28.40;;;;;;;15.54;82.91;101280.59;4946182;28;20066;-88
2022/06/06 01:53:01;;;;;;;64.70;30.70;;;;;;;15.55;82.91;101284.97;4965103;28;20054;-88
2022/06/06 01:55:29;;;;;;;69.18;32.95;;;;;;;15.56;83.28;101277.81;4966333;28;20490;-87
2022/06/06 01:58:00;;;;;;;64.35;30.77;;;;;;;15.55;83.06;101276.97;4966175;28;20106;-88
2022/06/06 02:00:26;;;;;;;64.85;32.05;;;;;;;15.53;83.48;101270.03;4966081;28;20058;-88
2022/06/06 02:02:52;;;;;;;62.95;28.65;;;;;;;15.54;83.74;101272.59;4950128;28;20037;-87
2022/06/06 02:05:17;;;;;;;58.35;28.10;;;;;;;15.59;83.76;101275.00;4967751;28;20611;-88
2022/06/06 02:07:44;;;;;;;60.00;28.02;;;;;;;15.57;83.30;101261.78;4964391;28;20026;-87
2022/06/06 02:10:11;;;;;;;57.33;26.20;;;;;;;15.61;83.35;101265.09;4950050;28;20026;-88
2022/06/06 02:12:38;;;;;;;49.90;25.02;;;;;;;15.58;82.95;101251.97;4961440;28;20035;-87
2022/06/06 02:15:04;;;;;;;54.38;26.73;;;;;;;15.60;83.50;101247.41;4945131;28;20433;-87
2022/06/06 02:17:30;;;;;;;52.30;24.88;;;;;;;15.63;82.91;101244.59;4949452;28;20418;-87
2022/06/06 02:19:55;;;;;;;46.08;23.75;;;;;;;15.65;83.04;101252.53;4950500;28;20031;-88
2022/06/06 02:22:21;;;;;;;49.38;25.00;;;;;;;15.65;83.21;101253.38;4945577;28;20074;-88
2022/06/06 02:24:46;;;;;;;51.03;25.42;;;;;;;15.66;83.06;101255.09;4965707;28;20061;-88
2022/06/06 02:27:11;;;;;;;47.90;23.02;;;;;;;15.68;83.20;101263.88;4950208;28;20030;-88
2022/06/06 02:29:38;;;;;;;51.63;24.20;;;;;;;15.67;82.77;101250.66;4949531;28;20074;-88
2022/06/06 02:32:05;;;;;;;51.15;24.55;;;;;;;15.70;82.36;101253.97;4950105;28;20152;-88
2022/06/06 02:34:30;;;;;;;45.05;23.15;;;;;;;15.72;82.85;101249.44;4960502;28;20601;-88
2022/06/06 02:36:55;;;;;;;50.97;22.83;;;;;;;15.71;82.33;101255.69;4964109;28;20034;-87
2022/06/06 02:39:20;;;;;;;47.55;22.42;;;;;;;15.69;82.26;101259.41;4947276;28;20055;-87
2022/06/06 02:41:46;;;;;;;48.38;23.70;;;;;;;15.67;82.66;101258.66;4967361;28;20061;-88
2022/06/06 02:44:11;;;;;;;48.05;24.60;;;;;;;15.67;82.34;101246.19;4947776;28;20031;-88
2022/06/06 02:46:36;;;;;;;50.33;24.08;;;;;;;15.69;81.75;101246.94;4966716;28;20046;-88
2022/06/06 02:49:02;;;;;;;53.33;25.27;;;;;;;15.66;81.91;101254.22;4964492;28;20041;-88
2022/06/06 02:51:28;;;;;;;57.45;26.00;;;;;;;15.67;81.91;101248.84;4950976;28;20117;-88
2022/06/06 02:53:53;;;;;;;54.15;26.50;;;;;;;15.69;81.16;101246.94;4963938;28;20035;-88
2022/06/06 02:56:19;;;;;;;54.95;24.95;;;;;;;15.71;81.35;101247.69;4947572;28;20030;-88
2022/06/06 02:58:44;;;;;;;53.80;24.77;;;;;;;15.70;81.21;101247.78;4948392;28;20027;-89
2022/06/06 03:01:11;;;;;;;48.60;23.58;;;;;;;15.67;81.72;101248.84;4963353;28;20061;-89
2022/06/06 03:03:37;;;;;;;53.58;23.73;;;;;;;15.66;81.77;101243.56;4955282;28;20030;-89
2022/06/06 03:06:06;;;;;;;50.40;23.60;;;;;;;15.66;81.75;101248.91;4959538;28;20680;-89
2022/06/06 03:09:10;;;;;;;54.03;24.08;;;;;;;15.67;81.44;101248.84;4952787;28;20474;-88
2022/06/06 03:11:54;;;;;;;47.63;22.13;;;;;;;15.69;81.16;101249.59;4950014;28;21745;-88
2022/06/06 03:14:48;;;;;;;46.70;23.70;;;;;;;15.64;81.62;101249.00;4953057;28;20035;-89
2022/06/06 03:20:48;;;;;;;45.05;19.65;;;;;;;15.68;80.54;101250.56;4969175;28;20112;-88
2022/06/06 03:23:24;;;;;;;48.85;23.73;;;;;;;15.59;81.29;101248.34;4947092;28;20045;-88
2022/06/06 03:25:54;;;;;;;58.38;24.75;;;;;;;15.59;81.28;101258.16;4968372;28;20525;-88
2022/06/06 03:28:48;;;;;;;51.65;26.27;;;;;;;15.58;80.54;101262.63;4968734;28;20053;-89
2022/06/06 03:31:51;;;;;;;51.92;24.10;;;;;;;15.59;80.71;101263.50;4962098;28;20118;-89
2022/06/06 03:34:33;;;;;;;;;;;;;;;15.67;79.67;101263.97;4950852;28;20023;-88
2022/06/06 03:37:12;;;;;;;36.78;17.98;;;;;;;15.61;80.15;101262.44;4964755;28;20015;-89
2022/06/06 03:40:08;;;;;;;52.35;23.73;;;;;;;15.55;80.28;101262.78;4970790;28;20359;-89
2022/06/06 03:42:56;;;;;;;43.58;21.83;;;;;;;15.55;79.67;101262.78;4961893;28;20117;-89
2022/06/06 03:45:57;;;;;;;44.70;22.48;;;;;;;15.54;79.50;101259.28;4932453;28;20046;-90
2022/06/06 03:49:01;;;;;;;36.47;21.20;;;;;;;15.48;79.13;101266.72;4938095;28;20048;-89
2022/06/06 03:51:59;;;;;;;39.25;21.83;;;;;;;15.40;79.80;101267.16;4969677;28;20038;-88
2022/06/06 03:54:40;;;;;;;43.63;21.52;;;;;;;15.37;79.57;101272.63;4951116;28;20022;-89
2022/06/06 03:57:15;;;;;;;37.63;20.67;;;;;;;15.35;79.05;101269.19;4964350;28;20039;-89
2022/06/06 03:59:43;;;;;;;40.78;20.20;;;;;;;15.34;79.26;101253.28;4965602;28;20024;-89
2022/06/06 04:02:13;;;;;;;38.47;20.58;;;;;;;15.36;78.51;101273.56;4966675;28;20023;-89
2022/06/06 04:04:39;;;;;;;41.80;21.77;;;;;;;15.29;79.14;101273.06;4967391;28;20494;-89
2022/06/06 04:07:05;;;;;;;39.72;20.15;;;;;;;15.24;78.60;101264.41;4946444;28;20026;-88
2022/06/06 04:09:34;;;;;;;37.08;20.73;;;;;;;15.14;78.83;101271.19;4953098;28;20030;-89
2022/06/06 04:12:08;;;;;;;35.60;19.15;;;;;;;15.17;79.41;101281.69;4967682;28;20116;-88
2022/06/06 04:14:56;;;;;;;33.47;18.88;;;;;;;15.09;79.26;101281.22;4951657;28;20046;-89
2022/06/06 04:17:52;;;;;;;38.25;19.90;;;;;;;15.10;79.25;101285.59;4948024;28;20098;-88
2022/06/06 04:20:17;;;;;;;31.58;16.90;;;;;;;15.02;79.40;101278.00;4970137;28;20709;-89
2022/06/06 04:23:15;;;;;;;30.93;17.40;;;;;;;15.02;79.11;101288.66;4950987;28;20031;-88
2022/06/06 04:25:52;;;;;;;32.90;17.23;;;;;;;14.92;78.75;101295.41;4936510;28;20341;-89
2022/06/06 04:28:40;;;;;;;30.08;15.77;;;;;;;14.91;78.85;101293.66;4965177;28;20051;-89
2022/06/06 04:31:21;;;;;;;34.40;16.60;;;;;;;14.86;78.50;101300.16;4968990;28;20022;-89
2022/06/06 04:33:56;;;;;;;34.03;16.55;;;;;;;14.87;78.42;101291.22;4950933;28;20161;-89
2022/06/06 04:36:30;;;;;;;29.88;16.00;;;;;;;14.85;78.46;101295.78;4966549;28;20502;-89
2022/06/06 04:39:16;;;;;;;32.03;16.60;;;;;;;14.80;78.54;101301.34;4950637;28;20478;-88
2022/06/06 04:41:51;;;;;;;31.92;16.90;;;;;;;14.77;78.43;101304.16;4954460;28;20085;-89
2022/06/06 04:44:22;;;;;;;25.80;15.30;;;;;;;14.73;77.99;101298.09;4966474;28;20398;-89
2022/06/06 04:46:53;;;;;;;32.45;16.02;;;;;;;14.72;77.46;101306.19;4947278;28;20027;-89
2022/06/06 04:49:20;;;;;;;29.90;16.48;;;;;;;14.72;76.96;101307.03;4967836;28;20073;-88
2022/06/06 04:51:47;;;;;;;29.67;16.08;;;;;;;14.73;76.62;101305.22;4964962;28;20585;-89
2022/06/06 04:54:19;;;;;;;27.70;15.45;;;;;;;14.83;76.79;101306.53;4966976;28;20056;-89
2022/06/06 04:56:45;;;;;;;28.55;15.80;;;;;;;14.89;75.58;101311.53;4959310;28;20110;-89
2022/06/06 04:59:12;;;;;;;28.75;16.77;;;;;;;14.93;76.88;101306.91;4949446;28;20450;-89
2022/06/06 05:01:39;;;;;;;27.83;16.58;;;;;;;14.89;75.64;101308.00;4967299;28;20026;-88
2022/06/06 05:04:04;;;;;;;26.52;14.90;;;;;;;15.00;74.72;101308.31;4962131;28;20038;-88
2022/06/06 05:06:45;;;;;;;26.23;15.93;;;;;;;15.09;75.00;101301.66;4951084;28;20573;-89
2022/06/06 05:09:45;;;;;;;27.38;16.50;;;;;;;15.07;75.32;101296.41;4950618;28;20113;-88
2022/06/06 05:12:26;;;;;;;25.48;15.63;;;;;;;15.09;74.75;101304.31;4964774;28;20521;-89
2022/06/06 05:15:02;;;;;;;26.08;18.05;;;;;;;15.00;74.19;101308.31;4968635;28;20082;-88
2022/06/06 05:17:55;;;;;;;28.90;17.92;;;;;;;15.03;74.98;101308.16;4968203;28;20035;-89
2022/06/06 05:20:40;;;;;;;25.15;16.42;;;;;;;15.10;74.63;101314.88;4947030;28;20027;-89
2022/06/06 05:23:30;;;;;;;32.80;18.27;;;;;;;15.07;74.24;101311.53;4968688;28;20578;-89
2022/06/06 05:26:49;;;;;;;27.05;18.08;;;;;;;15.05;74.23;101308.94;4966498;28;20509;-88
2022/06/06 05:29:36;;;;;;;29.20;18.33;;;;;;;14.98;73.62;101315.53;4950350;28;20517;-89
2022/06/06 05:32:25;;;;;;;28.27;19.05;;;;;;;14.82;74.42;101306.56;4959766;28;20482;-89
2022/06/06 05:35:03;;;;;;;24.92;17.67;;;;;;;14.91;73.83;101319.44;4960820;28;20042;-89
2022/06/06 05:38:11;;;;;;;29.88;17.90;;;;;;;14.97;73.71;101319.13;4962187;28;20046;-88
2022/06/06 05:40:39;;;;;;;21.50;15.35;;;;;;;14.95;73.04;101321.00;4967487;28;20054;-89
2022/06/06 05:43:21;;;;;;;24.30;17.35;;;;;;;14.95;72.91;101327.19;4947764;28;20548;-89
2022/06/06 05:46:05;;;;;;;19.70;14.00;;;;;;;15.05;73.54;101324.91;4947718;28;20100;-88
2022/06/06 05:48:45;;;;;;;25.92;16.67;;;;;;;15.10;73.41;101322.88;4950289;28;20066;-89
2022/06/06 05:51:22;;;;;;;25.98;16.25;;;;;;;15.19;72.53;101321.53;4965555;28;20030;-89
2022/06/06 05:54:23;;;;;;;22.60;16.45;;;;;;;15.37;72.39;101322.38;4954084;28;20105;-88
2022/06/06 05:56:54;;;;;;;22.13;15.55;;;;;;;15.41;71.68;101322.16;4930196;28;20181;-89
2022/06/06 05:59:39;;;;;;;20.33;13.53;;;;;;;15.45;71.77;101334.38;4948097;28;20145;-88
2022/06/06 06:02:32;;;;;;;21.30;16.08;;;;;;;15.32;72.20;101330.63;4967868;28;20511;-88
2022/06/06 06:05:20;;;;;;;21.70;16.65;;;;;;;15.32;72.16;101328.81;4955980;28;20593;-88
2022/06/06 06:08:24;;;;;;;18.60;14.30;;;;;;;15.36;71.52;101326.84;4945096;28;20027;-89
2022/06/06 06:11:04;;;;;;;21.27;14.38;;;;;;;15.40;71.18;101327.56;4966390;28;20093;-88
2022/06/06 06:13:56;;;;;;;22.98;14.90;;;;;;;15.52;70.96;101325.09;4962084;28;20607;-88
2022/06/06 06:16:25;;;;;;;19.33;15.45;;;;;;;15.57;69.20;101332.84;4944628;28;20096;-88
2022/06/06 06:19:08;;;;;;;20.65;14.48;;;;;;;15.64;70.49;101336.97;4963776;28;20378;-89
2022/06/06 06:21:44;;;;;;;19.42;13.95;;;;;;;15.47;70.20;101337.81;4961019;28;20114;-88
2022/06/06 06:24:12;;;;;;;18.55;13.80;;;;;;;15.45;70.68;101336.19;4950793;28;20130;-88
2022/06/06 06:26:39;;;;;;;19.17;15.43;;;;;;;15.68;70.93;101338.53;4960990;28;20113;-88
2022/06/06 06:29:08;;;;;;;19.15;14.38;;;;;;;15.82;69.69;101338.63;4931538;28;20496;-87
2022/06/06 06:31:52;;;;;;;16.20;11.18;;;;;;;15.82;68.30;101345.78;4925582;29;20391;-88
2022/06/06 06:34:36;;;;;;;14.00;10.13;;;;;;;15.74;68.63;101350.66;4927197;29;20039;-88
2022/06/06 06:37:15;;;;;;;13.02;9.70;;;;;;;15.87;69.44;101359.72;4923153;29;20028;-89
2022/06/06 06:40:09;;;;;;;12.45;8.40;;;;;;;15.93;68.17;101364.72;4930092;29;20125;-89
2022/06/06 06:43:10;;;;;;;12.32;7.85;;;;;;;15.99;68.13;101355.50;4928848;29;20515;-89
2022/06/06 06:46:03;;;;;;;8.93;6.75;;;;;;;16.09;67.71;101364.75;4927582;29;20039;-88
2022/06/06 06:48:32;;;;;;;8.07;6.13;;;;;;;16.22;66.48;101363.09;4918224;29;20526;-88
2022/06/06 06:51:41;;;;;;;10.00;6.55;;;;;;;16.36;66.70;101345.47;4922246;29;20054;-88
2022/06/06 06:54:29;;;;;;;8.93;5.35;;;;;;;16.47;66.28;101357.28;4914505;29;20047;-88
2022/06/06 06:57:25;;;;;;;9.10;5.05;;;;;;;16.29;65.20;101372.50;4924864;29;20028;-87
2022/06/06 07:00:11;;;;;;;4.43;4.03;;;;;;;16.07;64.39;101367.47;4920544;29;20020;-87
2022/06/06 07:08:56;;;;;;;4.95;3.80;;;;;;;16.40;66.69;101371.03;4925609;29;20171;-88
2022/06/06 07:11:45;;;;;;;8.40;3.80;;;;;;;16.54;65.64;101368.44;4925868;29;20035;-88
2022/06/06 07:14:35;;;;;;;7.10;2.90;;;;;;;16.67;63.99;101376.63;4919090;29;20044;-88
2022/06/06 07:17:02;;;;;;;3.65;2.95;;;;;;;16.58;62.18;101367.34;4924248;29;20031;-89
2022/06/06 07:19:50;;;;;;;5.13;2.78;;;;;;;16.83;64.36;101373.03;4925380;29;20027;-89
2022/06/06 07:22:17;;;;;;;4.93;2.60;;;;;;;17.06;62.35;101369.00;4938955;29;20083;-88
2022/06/06 07:24:47;;;;;;;3.42;2.70;;;;;;;17.31;61.83;101368.44;4926744;29;20031;-88
2022/06/06 07:27:12;;;;;;;5.93;3.08;;;;;;;17.36;61.52;101368.16;4928313;28;20046;-89
2022/06/06 07:29:38;;;;;;;6.20;2.38;;;;;;;17.59;59.24;101372.09;4967410;28;20031;-88
2022/06/06 07:32:12;;;;;;;7.70;2.63;;;;;;;17.47;59.57;101376.38;4964541;28;20030;-89
2022/06/06 07:34:57;;;;;;;3.53;2.63;;;;;;;17.51;60.18;101382.41;4963356;28;20030;-88
2022/06/06 07:37:31;;;;;;;5.72;2.45;;;;;;;17.40;58.06;101383.06;4965666;28;20678;-90
2022/06/06 07:40:11;;;;;;;3.38;2.40;;;;;;;17.66;58.63;101373.44;4961294;28;20027;-88
2022/06/06 07:42:56;;;;;;;5.00;2.60;;;;;;;17.92;58.02;101374.53;4963203;28;20410;-88
2022/06/06 07:45:26;;;;;;;4.00;2.33;;;;;;;18.69;54.70;101389.25;4946670;28;21542;-89
2022/06/06 07:48:13;;;;;;;3.13;2.15;;;;;;;18.61;55.99;101388.88;4950730;28;20039;-89
2022/06/06 07:51:08;;;;;;;4.63;2.80;;;;;;;18.37;55.68;101391.31;4950734;28;20074;-89
2022/06/06 07:53:42;;;;;;;2.97;2.63;;;;;;;18.39;55.58;101386.72;4969690;28;20038;-88
2022/06/06 07:56:26;;;;;;;5.60;2.22;;;;;;;18.57;56.62;101398.06;4950470;28;20474;-89
2022/06/06 07:59:00;;;;;;;2.38;1.98;;;;;;;18.99;54.44;101389.06;4971094;28;20105;-89
2022/06/06 08:01:44;;;;;;;3.25;1.80;;;;;;;19.59;52.36;101382.31;4946563;28;20345;-90
2022/06/06 08:04:13;;;;;;;4.35;2.53;;;;;;;20.12;50.69;101369.66;4952644;28;20035;-90
2022/06/06 08:06:55;;;;;;;2.20;2.00;;;;;;;20.13;52.40;101376.72;4965321;28;21180;-89
2022/06/06 08:09:42;;;;;;;4.97;2.00;;;;;;;19.55;52.32;101394.22;4951631;28;20023;-90
2022/06/06 08:12:35;;;;;;;2.28;2.08;;;;;;;19.00;54.75;101385.41;4947896;28;20446;-88
2022/06/06 08:15:10;;;;;;;4.75;2.10;;;;;;;18.58;55.07;101387.25;4965881;28;20023;-90
2022/06/06 08:17:48;;;;;;;4.30;2.20;;;;;;;18.64;55.27;101380.63;4969938;28;20058;-89
2022/06/06 08:20:21;;;;;;;2.88;2.10;;;;;;;18.76;54.56;101390.59;4967182;28;20218;-89
2022/06/06 08:22:48;;;;;;;3.83;1.90;;;;;;;18.66;54.59;101383.22;4966417;28;20034;-88
2022/06/06 08:25:16;;;;;;;2.75;2.25;;;;;;;18.49;54.18;101377.13;4965957;28;20470;-89
2022/06/06 08:27:45;;;;;;;2.63;2.28;;;;;;;18.45;55.35;101385.47;4966565;28;20121;-89
2022/06/06 08:30:12;;;;;;;3.53;2.38;;;;;;;18.42;54.96;101378.50;4967986;28;20182;-89
2022/06/06 08:32:37;;;;;;;4.40;2.30;;;;;;;18.51;54.16;101388.63;4967220;28;20164;-88
2022/06/06 08:35:03;;;;;;;2.75;2.55;;;;;;;18.90;53.98;101362.03;4964493;28;20045;-89
2022/06/06 08:37:37;;;;;;;2.75;1.73;;;;;;;19.42;53.91;101367.38;4970194;28;20431;-89
2022/06/06 08:40:34;;;;;;;5.28;1.65;;;;;;;19.81;52.75;101366.44;4961271;28;20031;-88
2022/06/06 08:43:18;;;;;;;2.42;1.67;;;;;;;20.52;50.99;101372.16;4946843;28;20557;-89
2022/06/06 08:46:33;;;;;;;1.75;1.30;;;;;;;21.38;49.57;101364.75;4950066;28;20076;-90
2022/06/06 08:50:44;;;;;;;1.45;1.23;;;;;;;21.00;48.33;101356.03;4957456;28;20113;-90
2022/06/06 08:52:09;;;;;;;2.35;1.20;;;;;;;20.69;50.98;101350.25;4956695;28;20055;-91
2022/06/06 08:54:46;;;;;;;1.73;1.20;;;;;;;20.49;49.84;101346.38;4962961;28;20027;-89
2022/06/06 08:57:17;;;;;;;3.53;1.40;;;;;;;20.25;51.30;101354.38;4970445;28;20070;-90
2022/06/06 09:00:16;;;;;;;3.53;1.90;;;;;;;19.99;51.42;101352.69;4969697;28;20496;-89
2022/06/06 09:02:59;;;;;;;6.97;2.60;;;;;;;19.22;52.73;101352.69;4948626;28;20475;-88
2022/06/06 09:05:24;;;;;;;;;;;;;;;19.37;52.86;101343.56;4964317;28;20046;-90
2022/06/06 09:08:10;;;;;;;6.03;3.17;;;;;;;19.31;53.35;101351.19;4968940;28;19925;-89
2022/06/06 09:10:48;;;;;;;4.13;3.08;;;;;;;19.64;52.28;101347.16;4969660;28;20329;-90
2022/06/06 09:13:32;;;;;;;4.47;2.70;;;;;;;20.20;51.05;101353.84;4964912;28;20031;-89
2022/06/06 09:16:12;;;;;;;4.00;2.70;;;;;;;20.76;51.36;101364.13;4964525;28;20486;-90
2022/06/06 09:19:15;;;;;;;3.67;2.60;;;;;;;21.11;50.10;101361.44;4966653;28;20426;-90
2022/06/06 09:22:08;;;;;;;3.20;2.25;;;;;;;20.85;50.19;101355.38;4943362;28;20074;-90
2022/06/06 09:24:49;;;;;;;2.47;2.08;;;;;;;20.23;51.37;101364.34;4949047;28;20114;-89
2022/06/06 09:27:52;;;;;;;3.03;2.13;;;;;;;19.75;52.28;101358.84;4965611;28;20027;-89
2022/06/06 09:30:29;;;;;;;2.15;2.00;;;;;;;19.18;53.67;101351.16;4947899;28;20435;-89
2022/06/06 09:33:19;;;;;;;3.97;1.70;;;;;;;19.32;54.08;101359.13;4948942;28;20467;-89
2022/06/06 09:35:59;;;;;;;3.38;1.70;;;;;;;19.38;52.70;101347.09;4965722;28;20054;-90
2022/06/06 09:38:45;;;;;;;1.50;1.40;;;;;;;19.42;52.46;101340.56;4967954;28;20042;-90
2022/06/06 09:41:19;;;;;;;2.17;1.52;;;;;;;20.08;50.78;101341.31;4948938;28;20031;-91
2022/06/06 09:43:57;;;;;;;1.70;1.35;;;;;;;20.26;50.09;101345.34;4965819;28;20141;-90
2022/06/06 09:47:07;;;;;;;1.90;1.38;;;;;;;20.37;50.86;101329.28;4944849;28;20041;-91
2022/06/06 09:49:32;;;;;;;2.65;1.50;;;;;;;20.56;50.35;101339.59;4949364;28;20034;-90
2022/06/06 09:52:11;;;;;;;3.72;1.50;;;;;;;20.62;49.39;101324.84;4964774;28;20045;-89
2022/06/06 10:01:48;;;;;;;2.10;1.02;;;;;;;21.72;47.23;101331.63;4965889;28;20037;-91
2022/06/06 10:04:56;;;;;;;4.40;1.00;;;;;;;21.85;46.97;101327.00;4946729;28;20034;-90
2022/06/06 10:07:27;;;;;;;2.15;1.23;;;;;;;21.27;45.89;101318.13;4934331;28;20502;-89
2022/06/06 10:10:30;;;;;;;3.78;1.35;;;;;;;20.87;47.07;101322.00;4966702;28;20513;-89
2022/06/06 10:13:14;;;;;;;3.33;1.15;;;;;;;20.52;46.57;101313.94;4966053;28;20154;-90
2022/06/06 10:15:49;;;;;;;2.15;1.20;;;;;;;20.02;48.38;101314.91;4963762;28;20141;-89
2022/06/06 10:18:38;;;;;;;2.55;1.20;;;;;;;20.00;49.32;101306.09;4959417;28;20035;-90
2022/06/06 10:21:22;;;;;;;1.85;1.35;;;;;;;20.18;48.93;101309.28;4948770;28;20031;-89
2022/06/06 10:24:11;;;;;;;2.78;1.08;;;;;;;20.23;48.08;101315.16;4951436;28;20505;-89
2022/06/06 10:26:53;;;;;;;3.17;1.30;;;;;;;20.19;49.20;101305.63;4963109;28;20053;-90
2022/06/06 10:32:56;;;;;;;2.70;1.40;;;;;;;19.76;50.15;101295.31;4968548;28;20501;-89
2022/06/06 10:35:34;;;;;;;2.90;1.63;;;;;;;19.77;49.21;101303.28;4960063;28;20034;-90
2022/06/06 10:38:32;;;;;;;1.85;1.35;;;;;;;20.12;49.07;101306.06;4964845;28;20069;-89
2022/06/06 10:41:19;;;;;;;3.08;1.70;;;;;;;20.53;48.61;101302.19;4967086;28;20023;-90
2022/06/06 10:44:00;;;;;;;5.65;1.30;;;;;;;20.89;48.57;101300.41;4948683;28;20039;-90
2022/06/06 10:46:40;;;;;;;2.50;1.55;;;;;;;21.15;47.48;101314.53;4965315;28;20363;-90
2022/06/06 10:49:05;;;;;;;1.63;1.30;;;;;;;21.26;47.33;101303.78;4965624;28;20085;-89
2022/06/06 10:52:17;;;;;;;2.25;1.40;;;;;;;21.29;48.29;101316.16;4964677;28;20031;-89
2022/06/06 10:55:12;;;;;;;2.07;1.03;;;;;;;21.51;45.50;101334.19;4965187;28;20023;-90
2022/06/06 10:58:01;;;;;;;1.73;1.17;;;;;;;21.58;46.71;101313.88;4926847;28;20294;-91
2022/06/06 11:00:42;;;;;;;3.80;1.67;;;;;;;21.30;47.71;101307.09;4965459;28;20478;-90
2022/06/06 11:03:19;;;;;;;1.95;1.20;;;;;;;21.43;47.01;101294.44;4951294;28;20038;-91
2022/06/06 11:06:09;;;;;;;1.20;1.10;;;;;;;21.74;46.30;101303.63;4961000;28;20034;-91
2022/06/06 11:09:12;;;;;;;2.60;0.98;;;;;;;21.99;44.23;101297.13;4964307;28;20081;-91
2022/06/06 11:11:56;;;;;;;3.17;1.30;;;;;;;22.12;44.94;101305.09;4961438;28;20463;-90
2022/06/06 11:14:24;;;;;;;0.73;0.73;;;;;;;21.77;43.74;101294.44;4941380;28;20045;-90
2022/06/06 11:17:27;;;;;;;1.45;0.95;;;;;;;21.71;46.18;101301.19;4965827;28;20034;-90
2022/06/06 11:20:30;;;;;;;3.50;1.13;;;;;;;22.13;44.35;101293.34;4961820;28;20486;-91
2022/06/06 11:23:10;;;;;;;2.97;1.67;;;;;;;21.40;42.87;101281.22;4944916;28;20030;-91
2022/06/06 11:26:04;;;;;;;1.77;0.80;;;;;;;21.28;44.30;101279.47;4968643;28;20041;-90
2022/06/06 11:28:35;;;;;;;2.35;1.10;;;;;;;21.50;43.21;101273.31;4971560;28;20490;-90
2022/06/06 11:31:09;;;;;;;9.30;1.27;;;;;;;21.67;43.33;101274.63;4952238;28;20065;-91
2022/06/06 11:34:14;;;;;;;1.10;0.90;;;;;;;21.55;43.62;101269.25;4970239;28;20066;-90
2022/06/06 11:37:12;;;;;;;1.10;0.98;;;;;;;21.25;44.61;101266.25;4949728;28;20065;-90
2022/06/06 11:40:05;;;;;;;3.47;1.38;;;;;;;21.08;45.65;101268.44;4951663;28;20145;-91
2022/06/06 11:43:09;;;;;;;1.48;0.70;;;;;;;21.21;45.00;101268.31;4967463;28;20545;-90
2022/06/06 11:46:02;;;;;;;3.40;1.10;;;;;;;21.24;43.79;101276.16;4961579;28;20437;-90
2022/06/06 11:48:50;;;;;;;1.05;0.90;;;;;;;21.19;43.87;101272.13;4951935;28;20379;-91
2022/06/06 11:51:40;;;;;;;2.38;1.10;;;;;;;21.12;44.80;101279.78;4967047;28;20058;-91
2022/06/06 11:54:42;;;;;;;2.15;1.27;;;;;;;21.02;45.26;101278.81;4951569;28;20023;-90
2022/06/06 11:57:23;;;;;;;2.53;1.17;;;;;;;20.93;46.52;101287.56;4952779;28;20026;-90
2022/06/06 12:00:11;;;;;;;2.08;1.20;;;;;;;20.84;46.13;101278.38;4953278;28;20041;-89
2022/06/06 12:03:04;;;;;;;1.50;1.10;;;;;;;20.55;45.14;101275.22;4952254;28;20105;-89
2022/06/06 12:06:07;;;;;;;2.75;1.13;;;;;;;20.34;46.07;101289.25;4970876;28;20039;-94
2022/06/06 12:08:54;;;;;;;2.95;1.33;;;;;;;20.24;45.86;101277.50;4947520;28;20027;-90
2022/06/06 12:11:50;;;;;;;1.27;1.10;;;;;;;20.24;46.02;101279.31;4960843;28;20047;-89
2022/06/06 12:14:53;;;;;;;1.85;1.35;;;;;;;20.47;46.70;101281.19;4964929;28;20029;-90
2022/06/06 12:17:42;;;;;;;2.72;1.15;;;;;;;20.43;47.07;101276.97;4951430;28;20027;-90
2022/06/06 12:20:22;;;;;;;1.52;1.30;;;;;;;20.11;47.30;101282.03;4968208;28;20110;-91
2022/06/06 12:23:09;;;;;;;2.53;1.20;;;;;;;20.08;48.21;101293.84;4970614;28;20066;-91
2022/06/06 12:25:41;;;;;;;5.57;1.30;;;;;;;20.08;47.61;101284.94;4965317;28;20026;-90
2022/06/06 12:28:40;;;;;;;4.05;1.13;;;;;;;20.27;47.40;101276.38;4950072;28;20050;-91
2022/06/06 12:31:14;;;;;;;1.95;1.10;;;;;;;20.38;47.50;101288.06;4946622;28;20078;-90
2022/06/06 12:34:17;;;;;;;5.32;1.23;;;;;;;20.52;46.68;101281.69;4966131;28;20033;-90
2022/06/06 12:36:52;;;;;;;2.45;1.60;;;;;;;20.59;46.99;101276.69;4968473;28;20509;-91